createdAt,value
2023-05-15T04:02:07.050Z,14.70
2023-05-15T04:04:34.900Z,14.60
2023-05-15T04:07:03.315Z,14.50
2023-05-15T04:09:31.371Z,14.30
2023-05-15T04:11:59.177Z,14.30
2023-05-15T04:14:27.375Z,14.30
2023-05-15T04:16:55.388Z,14.20
2023-05-15T04:19:24.563Z,14.20
2023-05-15T04:21:52.314Z,14.00
2023-05-15T04:24:20.082Z,14.00
2023-05-15T04:26:47.916Z,13.90
2023-05-15T04:29:15.952Z,13.90
2023-05-15T04:31:43.885Z,14.00
2023-05-15T04:34:11.725Z,14.00
2023-05-15T04:36:42.948Z,14.10
2023-05-15T04:39:11.008Z,14.10
2023-05-15T04:41:38.927Z,14.20
2023-05-15T04:44:07.072Z,14.20
2023-05-15T04:46:37.211Z,14.20
2023-05-15T04:49:05.659Z,14.20
2023-05-15T04:51:33.543Z,14.30
2023-05-15T04:54:02.727Z,14.30
2023-05-15T04:56:30.599Z,14.40
2023-05-15T04:58:58.436Z,14.40
2023-05-15T05:01:26.424Z,14.40
2023-05-15T05:03:54.288Z,14.40
2023-05-15T05:06:22.229Z,14.40
2023-05-15T05:08:50.028Z,14.30
2023-05-15T05:11:19.230Z,14.40
2023-05-15T05:13:46.984Z,14.40
2023-05-15T05:16:14.941Z,14.50
2023-05-15T05:18:42.865Z,14.50
2023-05-15T05:21:10.786Z,14.50
2023-05-15T05:23:38.581Z,14.50
2023-05-15T05:26:06.636Z,14.40
2023-05-15T05:28:35.884Z,14.40
2023-05-15T05:31:03.641Z,14.60
2023-05-15T05:33:31.414Z,14.60
2023-05-15T05:35:59.258Z,14.70
2023-05-15T05:38:27.746Z,14.70
2023-05-15T05:40:55.630Z,14.80
2023-05-15T05:43:23.551Z,14.90
2023-05-15T05:45:52.732Z,14.90
2023-05-15T05:48:20.649Z,15.00
2023-05-15T05:50:48.435Z,15.10
2023-05-15T05:53:16.372Z,15.10
2023-05-15T05:55:44.308Z,15.10
2023-05-15T05:58:18.295Z,15.10
2023-05-15T06:00:54.687Z,15.20
2023-05-15T06:03:23.015Z,15.20
2023-05-15T06:05:51.254Z,15.20
2023-05-15T06:08:19.616Z,15.20
2023-05-15T06:10:48.225Z,15.60
2023-05-15T06:13:16.185Z,15.80
2023-05-15T06:15:45.620Z,16.00
2023-05-15T06:18:15.125Z,15.90
2023-05-15T06:20:43.288Z,16.20
2023-05-15T06:23:11.160Z,16.20
2023-05-15T06:25:39.200Z,16.30
2023-05-15T06:28:07.137Z,16.30
2023-05-15T06:30:35.145Z,16.30
2023-05-15T06:33:03.016Z,16.30
2023-05-15T06:35:32.224Z,16.40
2023-05-15T06:38:00.195Z,16.30
2023-05-15T06:42:56.531Z,16.30
2023-05-15T06:45:24.497Z,16.20
2023-05-15T06:47:52.573Z,16.20
2023-05-15T06:50:20.794Z,16.30
2023-05-15T06:52:50.025Z,16.40
2023-05-15T06:55:18.024Z,16.40
2023-05-15T06:57:46.120Z,16.50
2023-05-15T07:00:15.173Z,16.50
2023-05-15T07:02:43.861Z,16.50
2023-05-15T07:05:12.742Z,16.50
2023-05-15T07:07:41.028Z,16.40
2023-05-15T07:10:11.159Z,16.60
2023-05-15T07:12:39.077Z,16.60
2023-05-15T07:15:07.876Z,16.60
2023-05-15T07:17:35.835Z,16.70
2023-05-15T07:20:06.055Z,16.60
2023-05-15T07:22:38.656Z,16.70
2023-05-15T07:25:11.401Z,16.70
2023-05-15T07:27:39.297Z,16.80
2023-05-15T07:30:08.405Z,16.80
2023-05-15T07:32:36.256Z,16.90
2023-05-15T07:35:04.980Z,17.00
2023-05-15T07:40:01.161Z,17.10
2023-05-15T07:42:30.317Z,17.10
2023-05-15T07:44:58.176Z,17.20
2023-05-15T07:47:26.120Z,17.30
2023-05-15T07:49:53.940Z,17.30
2023-05-15T07:52:21.722Z,17.40
2023-05-15T07:54:49.499Z,17.50
2023-05-15T07:57:17.247Z,17.40
2023-05-15T07:59:46.514Z,17.50
2023-05-15T08:02:14.556Z,17.50
2023-05-15T08:04:42.423Z,17.50
2023-05-15T08:09:38.407Z,17.70
2023-05-15T08:12:21.012Z,17.80
2023-05-15T08:14:51.811Z,17.80
2023-05-15T08:17:20.816Z,17.80
2023-05-15T08:19:49.514Z,17.90
2023-05-15T08:22:18.020Z,17.90
2023-05-15T08:27:14.096Z,18.00
2023-05-15T08:29:42.087Z,18.10
2023-05-15T08:32:11.469Z,18.10
2023-05-15T08:37:07.506Z,18.20
2023-05-15T08:39:35.330Z,18.20
2023-05-15T08:42:09.598Z,18.20
2023-05-15T08:44:37.701Z,18.20
2023-05-15T08:47:07.234Z,18.30
2023-05-15T08:49:45.950Z,18.30
2023-05-15T08:52:14.297Z,18.40
2023-05-15T08:54:42.178Z,18.50
2023-05-15T08:57:10.726Z,18.40
2023-05-15T08:59:42.271Z,18.40
2023-05-15T09:02:10.179Z,18.50
2023-05-15T09:04:39.437Z,18.50
2023-05-15T09:07:08.715Z,18.60
2023-05-15T09:09:37.227Z,18.60
2023-05-15T09:12:06.367Z,18.70
2023-05-15T09:14:34.234Z,18.70
2023-05-15T09:17:02.384Z,18.70
2023-05-15T09:19:30.672Z,18.90
2023-05-15T09:22:17.565Z,18.90
2023-05-15T09:24:48.065Z,18.90
2023-05-15T09:27:16.352Z,18.90
2023-05-15T09:29:44.174Z,18.90
2023-05-15T09:32:14.138Z,19.00
2023-05-15T09:34:43.455Z,19.10
2023-05-15T09:37:29.185Z,19.20
2023-05-15T09:39:57.242Z,19.50
2023-05-15T09:42:25.821Z,19.60
2023-05-15T09:44:53.649Z,19.70
2023-05-15T09:47:21.590Z,19.80
2023-05-15T09:49:50.078Z,20.00
2023-05-15T09:52:20.144Z,20.00
2023-05-15T09:54:50.210Z,20.10
2023-05-15T09:57:23.602Z,20.10
2023-05-15T09:59:51.494Z,20.00
2023-05-15T10:02:28.092Z,19.70
2023-05-15T10:04:57.590Z,19.60
2023-05-15T10:07:31.359Z,19.50
2023-05-15T10:09:59.777Z,19.40
2023-05-15T10:12:29.082Z,19.40
2023-05-15T10:17:27.099Z,19.60
2023-05-15T10:19:58.761Z,19.90
2023-05-15T10:22:31.827Z,20.00
2023-05-15T10:25:03.212Z,20.00
2023-05-15T10:27:31.631Z,20.10
2023-05-15T10:30:01.126Z,20.00
2023-05-15T10:32:29.534Z,20.00
2023-05-15T10:34:58.624Z,19.90
2023-05-15T10:37:27.196Z,19.80
2023-05-15T10:39:58.545Z,19.60
2023-05-15T10:42:27.736Z,19.50
2023-05-15T10:45:00.046Z,19.40
2023-05-15T10:47:28.533Z,19.50
2023-05-15T10:49:56.538Z,19.50
2023-05-15T10:52:24.994Z,19.50
2023-05-15T10:54:54.206Z,19.50
2023-05-15T10:57:23.849Z,19.50
2023-05-15T10:59:51.680Z,19.50
2023-05-15T11:02:24.173Z,19.50
2023-05-15T11:04:57.288Z,19.60
2023-05-15T11:07:25.695Z,19.60
2023-05-15T11:12:24.493Z,19.80
2023-05-15T11:15:21.613Z,19.80
2023-05-15T11:18:06.257Z,19.90
2023-05-15T11:20:36.476Z,19.90
2023-05-15T11:23:04.986Z,20.00
2023-05-15T11:25:33.178Z,20.00
2023-05-15T11:28:03.855Z,20.00
2023-05-15T11:30:39.675Z,22.10
2023-05-15T11:33:12.160Z,20.00
2023-05-15T11:35:43.116Z,20.10
2023-05-15T11:38:16.514Z,20.30
2023-05-15T11:40:48.786Z,20.60
2023-05-15T11:43:22.364Z,20.70
2023-05-15T11:45:56.075Z,20.90
2023-05-15T11:48:26.105Z,20.90
2023-05-15T11:50:54.566Z,20.80
2023-05-15T11:53:23.975Z,20.80
2023-05-15T11:55:54.443Z,20.90
2023-05-15T11:58:25.244Z,20.90
2023-05-15T12:00:55.449Z,20.80
2023-05-15T12:03:26.169Z,20.80
2023-05-15T12:05:59.568Z,20.80
2023-05-15T12:11:00.396Z,20.80
2023-05-15T12:13:30.420Z,20.80
2023-05-15T12:15:59.121Z,20.80
2023-05-15T12:20:55.697Z,20.90
2023-05-15T12:23:25.121Z,20.90
2023-05-15T12:25:58.413Z,20.90
2023-05-15T12:28:27.093Z,20.80
2023-05-15T12:30:56.562Z,20.80
2023-05-15T12:33:25.764Z,20.70
2023-05-15T12:36:00.835Z,20.70
2023-05-15T12:38:29.419Z,20.70
2023-05-15T12:43:26.803Z,20.80
2023-05-15T12:45:57.186Z,20.80
2023-05-15T12:48:29.930Z,20.80
2023-05-15T12:51:04.801Z,20.90
2023-05-15T12:53:34.167Z,20.80
2023-05-15T12:56:02.431Z,20.70
2023-05-15T12:58:30.509Z,20.70
2023-05-15T13:00:59.916Z,20.70
2023-05-15T13:03:27.958Z,20.80
2023-05-15T13:05:56.375Z,20.80
2023-05-15T13:10:58.092Z,20.80
2023-05-15T13:13:26.073Z,20.80
2023-05-15T13:15:55.399Z,20.80
2023-05-15T13:18:25.332Z,20.80
2023-05-15T13:20:53.224Z,20.80
2023-05-15T13:23:23.918Z,20.80
2023-05-15T13:33:16.490Z,20.30
2023-05-15T13:35:45.738Z,20.10
2023-05-15T13:43:10.128Z,19.80
2023-05-15T13:45:38.184Z,19.60
2023-05-15T13:48:06.672Z,19.30
2023-05-15T13:53:04.039Z,19.10
2023-05-15T13:55:31.873Z,18.90
2023-05-15T14:00:28.376Z,18.80
2023-05-15T14:02:56.561Z,18.80
2023-05-15T14:05:24.421Z,18.70
2023-05-15T14:10:24.107Z,18.50
2023-05-15T14:12:52.116Z,18.50
2023-05-15T14:15:19.922Z,18.40
2023-05-15T14:17:48.763Z,18.20
2023-05-15T14:20:16.683Z,18.10
2023-05-15T14:22:44.451Z,17.90
2023-05-15T14:25:12.282Z,17.90
2023-05-15T14:27:41.487Z,17.70
2023-05-15T14:32:38.104Z,17.40
2023-05-15T14:35:06.637Z,17.20
2023-05-15T14:37:34.472Z,17.10
2023-05-15T14:40:02.257Z,16.90
2023-05-15T14:42:30.051Z,16.80
2023-05-15T14:44:59.356Z,16.70
2023-05-15T14:47:28.379Z,16.60
2023-05-15T14:49:56.401Z,16.60
2023-05-15T14:52:24.212Z,16.60
2023-05-15T14:55:07.321Z,16.50
2023-05-15T14:57:36.141Z,16.50
2023-05-15T15:00:06.719Z,16.50
2023-05-15T15:02:34.965Z,16.60
2023-05-15T15:05:03.046Z,17.60
2023-05-15T15:07:31.108Z,16.50
2023-05-15T15:09:58.849Z,16.50
2023-05-15T15:12:27.901Z,16.50
2023-05-15T15:14:55.696Z,16.50
2023-05-15T15:17:24.902Z,16.60
2023-05-15T15:19:52.665Z,16.60
2023-05-15T15:22:20.417Z,16.60
2023-05-15T15:24:48.254Z,16.60
2023-05-15T15:29:44.190Z,16.60
2023-05-15T15:32:13.133Z,16.60
2023-05-15T15:34:42.320Z,16.60
2023-05-15T15:37:10.102Z,16.70
2023-05-15T15:39:37.856Z,16.70
2023-05-15T15:42:06.545Z,16.70
2023-05-15T15:44:35.406Z,16.80
2023-05-15T15:49:32.112Z,16.90
2023-05-15T15:52:01.386Z,16.90
2023-05-15T15:56:57.963Z,16.90
2023-05-15T15:59:25.748Z,17.00
2023-05-15T16:04:21.964Z,17.10
2023-05-15T16:06:49.822Z,17.10
2023-05-15T16:09:20.166Z,17.10
2023-05-15T16:11:47.973Z,17.10
2023-05-15T16:21:42.372Z,17.40
2023-05-15T16:24:10.380Z,17.50
2023-05-15T16:26:39.868Z,17.50
2023-05-15T16:29:07.827Z,17.50
2023-05-15T16:31:36.667Z,17.60
2023-05-15T16:34:04.722Z,17.60
2023-05-15T16:36:32.687Z,17.60
2023-05-15T16:39:01.718Z,17.60
2023-05-15T16:41:29.619Z,17.70
2023-05-15T16:43:58.754Z,17.60
2023-05-15T16:48:55.097Z,17.60
2023-05-15T16:53:53.900Z,17.60
2023-05-15T16:56:22.021Z,17.60
2023-05-15T16:58:50.617Z,17.60
2023-05-15T17:01:20.605Z,17.60
2023-05-15T17:03:48.756Z,17.70
2023-05-15T17:06:16.689Z,17.70
2023-05-15T17:08:46.435Z,17.80
2023-05-15T17:11:14.318Z,17.90
2023-05-15T17:13:42.228Z,17.90
2023-05-15T17:16:10.247Z,17.90
2023-05-15T17:18:40.317Z,18.00
2023-05-15T17:21:08.400Z,18.00
2023-05-15T17:23:36.334Z,18.00
2023-05-15T17:26:04.511Z,18.00
2023-05-15T17:28:32.540Z,18.00
2023-05-15T17:31:00.373Z,18.00
2023-05-15T17:35:57.710Z,18.10
2023-05-15T17:38:25.475Z,18.10
2023-05-15T17:40:53.358Z,18.20
2023-05-15T17:43:21.228Z,18.30
2023-05-15T17:45:49.185Z,18.30
2023-05-15T17:50:46.260Z,18.60
2023-05-15T17:53:15.682Z,18.60
2023-05-15T17:55:43.754Z,18.60
2023-05-15T17:58:11.649Z,18.60
2023-05-15T18:00:39.504Z,18.60
2023-05-15T18:03:08.033Z,18.60
2023-05-15T18:05:35.898Z,18.60
2023-05-15T18:08:03.787Z,18.60
2023-05-15T18:10:33.047Z,18.60
2023-05-15T18:13:00.853Z,18.60
2023-05-15T18:15:28.823Z,18.60
2023-05-15T18:17:57.234Z,18.50
2023-05-15T18:20:25.684Z,18.40
2023-05-15T18:22:53.564Z,18.30
2023-05-15T18:25:21.396Z,18.20
2023-05-15T18:27:50.786Z,18.20
2023-05-15T18:30:18.640Z,18.10
2023-05-15T18:32:46.617Z,18.10
2023-05-15T18:35:14.844Z,18.00
2023-05-15T18:37:42.601Z,18.00
2023-05-15T18:40:11.455Z,17.90
2023-05-15T18:42:39.257Z,17.90
2023-05-15T18:47:37.527Z,17.80
2023-05-15T18:50:06.107Z,17.80
2023-05-15T18:52:34.904Z,17.80
2023-05-15T18:55:02.818Z,17.70
2023-05-15T18:57:30.569Z,17.70
2023-05-15T18:59:58.578Z,17.70
2023-05-15T19:02:27.836Z,17.60
2023-05-15T19:04:56.132Z,17.60
2023-05-15T19:07:23.933Z,17.60
2023-05-15T19:09:52.231Z,17.50
2023-05-15T19:12:20.031Z,17.50
2023-05-15T19:14:47.929Z,17.50
2023-05-15T19:17:15.759Z,17.50
2023-05-15T19:19:45.013Z,17.50
2023-05-15T19:22:13.216Z,17.50
2023-05-15T19:24:41.311Z,17.50
2023-05-15T19:27:09.220Z,17.50
2023-05-15T19:29:37.129Z,17.40
2023-05-15T19:32:05.548Z,17.40
2023-05-15T19:34:33.375Z,17.40
2023-05-15T19:37:02.529Z,17.30
2023-05-15T19:39:30.421Z,19.40
2023-05-15T19:44:26.497Z,17.30
2023-05-15T19:46:55.391Z,17.20
2023-05-15T19:49:23.173Z,17.20
2023-05-15T19:51:51.488Z,17.30
2023-05-15T19:54:20.637Z,17.30
2023-05-15T19:56:48.583Z,17.30
2023-05-15T19:59:16.377Z,17.30
2023-05-15T20:01:44.289Z,17.30
2023-05-15T20:04:13.493Z,17.30
2023-05-15T20:06:41.453Z,17.30
2023-05-15T20:09:09.927Z,17.20
2023-05-15T20:11:39.076Z,17.10
2023-05-15T20:14:06.875Z,17.10
2023-05-15T20:16:34.738Z,17.10
2023-05-15T20:19:03.975Z,17.10
2023-05-15T20:21:32.582Z,17.10
2023-05-15T20:24:00.434Z,17.00
2023-05-15T20:26:28.314Z,17.00
2023-05-15T20:28:57.434Z,17.00
2023-05-15T20:31:25.201Z,16.90
2023-05-15T20:33:53.063Z,16.90
2023-05-15T20:36:25.115Z,16.90
2023-05-15T20:38:54.885Z,16.90
2023-05-15T20:41:23.344Z,16.90
2023-05-15T20:43:51.298Z,16.90
2023-05-15T20:46:20.806Z,16.90
2023-05-15T20:48:48.735Z,16.90
2023-05-15T20:51:16.967Z,16.90
2023-05-15T20:53:44.808Z,16.90
2023-05-15T20:56:12.586Z,16.90
2023-05-15T21:01:08.641Z,16.80
2023-05-15T21:03:38.113Z,16.90
2023-05-15T21:06:06.209Z,16.90
2023-05-15T21:08:34.064Z,16.90
2023-05-15T21:11:01.979Z,16.80
2023-05-15T21:13:29.812Z,16.80
2023-05-15T21:15:57.591Z,16.80
2023-05-15T21:18:25.700Z,16.80
2023-05-15T21:20:54.819Z,16.80
2023-05-15T21:23:22.583Z,16.70
2023-05-15T21:25:50.491Z,16.70
2023-05-15T21:28:18.325Z,16.70
2023-05-15T21:30:46.136Z,15.10
2023-05-15T21:33:14.083Z,16.70
2023-05-15T21:35:42.208Z,17.90
2023-05-15T21:38:11.458Z,16.60
2023-05-15T21:40:39.976Z,16.60
2023-05-15T21:43:07.876Z,16.50
2023-05-15T21:45:35.707Z,16.50
2023-05-15T21:48:03.985Z,16.50
2023-05-15T21:50:31.802Z,16.40
2023-05-15T21:52:59.801Z,16.20
2023-05-15T21:55:29.015Z,16.20
2023-05-15T21:57:56.814Z,16.20
2023-05-15T22:00:27.581Z,16.20
2023-05-15T22:02:55.631Z,16.10
2023-05-15T22:05:23.665Z,16.10
2023-05-15T22:07:51.575Z,16.10
2023-05-15T22:10:19.532Z,16.00
2023-05-15T22:12:49.457Z,16.00
2023-05-15T22:20:14.465Z,16.00
2023-05-15T22:22:43.546Z,15.90
2023-05-15T22:25:11.529Z,15.90
2023-05-15T22:27:39.299Z,15.90
2023-05-15T22:30:09.909Z,15.90
2023-05-15T22:32:37.980Z,15.90
2023-05-15T22:35:06.721Z,15.90
2023-05-15T22:37:34.843Z,15.70
2023-05-15T22:40:03.376Z,15.80
2023-05-15T22:42:31.185Z,15.80
2023-05-15T22:44:58.976Z,15.70
2023-05-15T22:47:29.163Z,15.70
2023-05-15T22:49:57.004Z,15.70
2023-05-15T22:52:25.215Z,15.60
2023-05-15T22:54:52.969Z,13.30
2023-05-15T22:57:20.827Z,15.60
2023-05-15T22:59:49.365Z,15.50
2023-05-15T23:04:46.870Z,15.50
2023-05-15T23:07:14.762Z,15.50
2023-05-15T23:09:42.606Z,15.40
2023-05-15T23:12:10.500Z,15.40
2023-05-15T23:14:38.280Z,15.40
2023-05-15T23:17:06.300Z,15.40
2023-05-15T23:19:34.045Z,15.30
2023-05-15T23:22:03.534Z,12.50
2023-05-15T23:24:31.388Z,15.20
2023-05-15T23:26:59.198Z,15.20
2023-05-15T23:29:27.009Z,15.20
2023-05-15T23:31:57.667Z,15.20
2023-05-15T23:34:25.702Z,15.20
2023-05-15T23:36:53.521Z,15.20
2023-05-15T23:39:22.584Z,15.20
2023-05-15T23:41:50.430Z,15.20
2023-05-15T23:44:18.286Z,15.20
2023-05-15T23:46:46.125Z,15.20
2023-05-15T23:49:13.986Z,15.20
2023-05-15T23:51:41.850Z,15.20
2023-05-15T23:54:09.624Z,15.30
2023-05-15T23:56:39.200Z,15.30
2023-05-15T23:59:06.937Z,15.30
